sensor_id;sensor_type;location;lat;lon;timestamp;P1;durP1;ratioP1;P2;durP2;ratioP2
2558;SDS011;1289;53.488;10.006;2023-08-20T00:00:30;10.93;;;7.57;;
2558;SDS011;1289;53.488;10.006;2023-08-20T00:02:58;13.80;;;7.13;;
2558;SDS011;1289;53.488;10.006;2023-08-20T00:05:27;12.43;;;6.97;;
2558;SDS011;1289;53.488;10.006;2023-08-20T00:07:54;12.80;;;7.37;;
2558;SDS011;1289;53.488;10.006;2023-08-20T00:10:20;15.60;;;8.60;;
2558;SDS011;1289;53.488;10.006;2023-08-20T00:12:47;11.23;;;8.30;;
2558;SDS011;1289;53.488;10.006;2023-08-20T00:15:15;11.63;;;7.70;;
2558;SDS011;1289;53.488;10.006;2023-08-20T00:17:43;10.87;;;8.20;;
2558;SDS011;1289;53.488;10.006;2023-08-20T00:20:10;10.10;;;8.27;;
2558;SDS011;1289;53.488;10.006;2023-08-20T00:22:38;11.60;;;8.23;;
2558;SDS011;1289;53.488;10.006;2023-08-20T00:25:07;10.93;;;8.07;;
2558;SDS011;1289;53.488;10.006;2023-08-20T00:27:35;7.47;;;6.67;;
2558;SDS011;1289;53.488;10.006;2023-08-20T00:30:02;9.53;;;8.17;;
2558;SDS011;1289;53.488;10.006;2023-08-20T00:32:30;9.37;;;8.37;;
2558;SDS011;1289;53.488;10.006;2023-08-20T00:34:56;13.40;;;7.40;;
2558;SDS011;1289;53.488;10.006;2023-08-20T00:37:23;9.67;;;7.60;;
2558;SDS011;1289;53.488;10.006;2023-08-20T00:39:51;8.47;;;7.57;;
2558;SDS011;1289;53.488;10.006;2023-08-20T00:42:19;12.90;;;8.77;;
2558;SDS011;1289;53.488;10.006;2023-08-20T00:44:45;13.63;;;8.53;;
2558;SDS011;1289;53.488;10.006;2023-08-20T00:47:12;10.83;;;9.07;;
2558;SDS011;1289;53.488;10.006;2023-08-20T00:49:40;12.20;;;8.33;;
2558;SDS011;1289;53.488;10.006;2023-08-20T00:52:08;9.73;;;8.13;;
2558;SDS011;1289;53.488;10.006;2023-08-20T00:54:35;16.80;;;8.23;;
2558;SDS011;1289;53.488;10.006;2023-08-20T00:57:03;9.80;;;8.50;;
2558;SDS011;1289;53.488;10.006;2023-08-20T00:59:29;11.30;;;7.40;;
2558;SDS011;1289;53.488;10.006;2023-08-20T01:01:57;10.63;;;8.00;;
2558;SDS011;1289;53.488;10.006;2023-08-20T01:04:23;11.80;;;8.67;;
2558;SDS011;1289;53.488;10.006;2023-08-20T01:06:53;9.90;;;8.53;;
2558;SDS011;1289;53.488;10.006;2023-08-20T01:09:27;15.43;;;8.90;;
2558;SDS011;1289;53.488;10.006;2023-08-20T01:11:59;10.07;;;7.87;;
2558;SDS011;1289;53.488;10.006;2023-08-20T01:14:26;9.60;;;8.60;;
2558;SDS011;1289;53.488;10.006;2023-08-20T01:16:53;10.47;;;9.20;;
2558;SDS011;1289;53.488;10.006;2023-08-20T01:19:21;12.77;;;9.10;;
2558;SDS011;1289;53.488;10.006;2023-08-20T01:24:29;10.40;;;9.13;;
2558;SDS011;1289;53.488;10.006;2023-08-20T01:27:08;11.60;;;8.47;;
2558;SDS011;1289;53.488;10.006;2023-08-20T01:29:42;18.07;;;8.67;;
2558;SDS011;1289;53.488;10.006;2023-08-20T01:32:09;12.77;;;9.80;;
2558;SDS011;1289;53.488;10.006;2023-08-20T01:34:36;19.93;;;8.97;;
2558;SDS011;1289;53.488;10.006;2023-08-20T01:37:02;11.87;;;8.03;;
2558;SDS011;1289;53.488;10.006;2023-08-20T01:39:29;12.10;;;8.20;;
2558;SDS011;1289;53.488;10.006;2023-08-20T01:41:56;9.40;;;7.73;;
2558;SDS011;1289;53.488;10.006;2023-08-20T01:44:25;8.50;;;7.73;;
2558;SDS011;1289;53.488;10.006;2023-08-20T01:46:53;13.70;;;9.20;;
2558;SDS011;1289;53.488;10.006;2023-08-20T01:49:20;13.77;;;9.97;;
2558;SDS011;1289;53.488;10.006;2023-08-20T01:51:46;10.20;;;8.90;;
2558;SDS011;1289;53.488;10.006;2023-08-20T01:54:13;10.10;;;8.33;;
2558;SDS011;1289;53.488;10.006;2023-08-20T01:56:40;11.83;;;9.17;;
2558;SDS011;1289;53.488;10.006;2023-08-20T01:59:06;10.80;;;8.90;;
2558;SDS011;1289;53.488;10.006;2023-08-20T02:01:33;14.57;;;10.20;;
2558;SDS011;1289;53.488;10.006;2023-08-20T02:04:01;12.60;;;9.07;;
2558;SDS011;1289;53.488;10.006;2023-08-20T02:06:28;12.93;;;9.23;;
2558;SDS011;1289;53.488;10.006;2023-08-20T02:08:54;10.13;;;8.77;;
2558;SDS011;1289;53.488;10.006;2023-08-20T02:11:22;10.27;;;8.40;;
2558;SDS011;1289;53.488;10.006;2023-08-20T02:13:49;13.10;;;8.53;;
2558;SDS011;1289;53.488;10.006;2023-08-20T02:16:15;10.03;;;8.90;;
2558;SDS011;1289;53.488;10.006;2023-08-20T02:18:42;11.23;;;9.73;;
2558;SDS011;1289;53.488;10.006;2023-08-20T02:21:10;13.63;;;9.17;;
2558;SDS011;1289;53.488;10.006;2023-08-20T02:23:37;11.20;;;9.53;;
2558;SDS011;1289;53.488;10.006;2023-08-20T02:26:05;15.50;;;9.73;;
2558;SDS011;1289;53.488;10.006;2023-08-20T02:28:33;9.77;;;8.70;;
2558;SDS011;1289;53.488;10.006;2023-08-20T02:31:03;9.93;;;8.93;;
2558;SDS011;1289;53.488;10.006;2023-08-20T02:33:30;14.87;;;10.27;;
2558;SDS011;1289;53.488;10.006;2023-08-20T02:36:00;12.37;;;8.40;;
2558;SDS011;1289;53.488;10.006;2023-08-20T02:38:28;11.23;;;10.10;;
2558;SDS011;1289;53.488;10.006;2023-08-20T02:40:55;9.10;;;8.23;;
2558;SDS011;1289;53.488;10.006;2023-08-20T02:43:21;10.90;;;8.97;;
2558;SDS011;1289;53.488;10.006;2023-08-20T02:45:48;12.97;;;9.30;;
2558;SDS011;1289;53.488;10.006;2023-08-20T02:48:17;11.77;;;9.57;;
2558;SDS011;1289;53.488;10.006;2023-08-20T02:50:44;13.70;;;11.33;;
2558;SDS011;1289;53.488;10.006;2023-08-20T02:53:10;10.43;;;9.33;;
2558;SDS011;1289;53.488;10.006;2023-08-20T02:55:38;10.93;;;9.43;;
2558;SDS011;1289;53.488;10.006;2023-08-20T02:58:05;10.80;;;8.77;;
2558;SDS011;1289;53.488;10.006;2023-08-20T03:00:32;15.20;;;9.00;;
2558;SDS011;1289;53.488;10.006;2023-08-20T03:02:59;13.77;;;12.30;;
2558;SDS011;1289;53.488;10.006;2023-08-20T03:05:27;11.00;;;9.80;;
2558;SDS011;1289;53.488;10.006;2023-08-20T03:07:54;10.53;;;7.80;;
2558;SDS011;1289;53.488;10.006;2023-08-20T03:10:21;9.67;;;8.67;;
2558;SDS011;1289;53.488;10.006;2023-08-20T03:12:49;9.77;;;8.70;;
2558;SDS011;1289;53.488;10.006;2023-08-20T03:15:15;10.93;;;9.47;;
2558;SDS011;1289;53.488;10.006;2023-08-20T03:17:42;12.87;;;9.30;;
2558;SDS011;1289;53.488;10.006;2023-08-20T03:20:09;12.83;;;10.00;;
2558;SDS011;1289;53.488;10.006;2023-08-20T03:22:37;11.30;;;9.83;;
2558;SDS011;1289;53.488;10.006;2023-08-20T03:25:04;9.33;;;8.43;;
2558;SDS011;1289;53.488;10.006;2023-08-20T03:27:30;11.20;;;9.00;;
2558;SDS011;1289;53.488;10.006;2023-08-20T03:29:59;9.03;;;7.97;;
2558;SDS011;1289;53.488;10.006;2023-08-20T03:32:26;9.47;;;7.97;;
2558;SDS011;1289;53.488;10.006;2023-08-20T03:34:52;9.60;;;8.60;;
2558;SDS011;1289;53.488;10.006;2023-08-20T03:37:21;9.97;;;9.00;;
2558;SDS011;1289;53.488;10.006;2023-08-20T03:39:47;11.70;;;8.20;;
2558;SDS011;1289;53.488;10.006;2023-08-20T03:42:14;11.23;;;8.20;;
2558;SDS011;1289;53.488;10.006;2023-08-20T03:44:41;9.10;;;8.30;;
2558;SDS011;1289;53.488;10.006;2023-08-20T03:47:08;12.43;;;9.63;;
2558;SDS011;1289;53.488;10.006;2023-08-20T03:49:35;10.53;;;9.33;;
2558;SDS011;1289;53.488;10.006;2023-08-20T03:52:02;12.97;;;9.33;;
2558;SDS011;1289;53.488;10.006;2023-08-20T03:54:29;9.73;;;7.93;;
2558;SDS011;1289;53.488;10.006;2023-08-20T03:56:56;9.20;;;7.93;;
2558;SDS011;1289;53.488;10.006;2023-08-20T03:59:22;9.80;;;8.90;;
2558;SDS011;1289;53.488;10.006;2023-08-20T04:01:49;12.23;;;9.50;;
2558;SDS011;1289;53.488;10.006;2023-08-20T04:04:17;9.10;;;8.20;;
2558;SDS011;1289;53.488;10.006;2023-08-20T04:06:43;9.77;;;8.87;;
2558;SDS011;1289;53.488;10.006;2023-08-20T04:09:10;11.70;;;8.53;;
2558;SDS011;1289;53.488;10.006;2023-08-20T04:11:38;8.80;;;8.00;;
2558;SDS011;1289;53.488;10.006;2023-08-20T04:14:04;11.97;;;8.80;;
2558;SDS011;1289;53.488;10.006;2023-08-20T04:16:31;8.30;;;7.60;;
2558;SDS011;1289;53.488;10.006;2023-08-20T04:18:58;9.57;;;8.47;;
2558;SDS011;1289;53.488;10.006;2023-08-20T04:21:26;9.13;;;7.87;;
2558;SDS011;1289;53.488;10.006;2023-08-20T04:23:52;9.33;;;8.40;;
2558;SDS011;1289;53.488;10.006;2023-08-20T04:26:19;10.47;;;8.30;;
2558;SDS011;1289;53.488;10.006;2023-08-20T04:28:45;13.43;;;9.33;;
2558;SDS011;1289;53.488;10.006;2023-08-20T04:31:12;9.90;;;8.10;;
2558;SDS011;1289;53.488;10.006;2023-08-20T04:33:50;8.93;;;7.50;;
2558;SDS011;1289;53.488;10.006;2023-08-20T04:36:22;10.97;;;8.63;;
2558;SDS011;1289;53.488;10.006;2023-08-20T04:38:50;8.57;;;7.77;;
2558;SDS011;1289;53.488;10.006;2023-08-20T04:41:16;24.80;;;8.77;;
2558;SDS011;1289;53.488;10.006;2023-08-20T04:43:43;10.80;;;8.93;;
2558;SDS011;1289;53.488;10.006;2023-08-20T04:46:09;9.80;;;8.53;;
2558;SDS011;1289;53.488;10.006;2023-08-20T04:48:36;11.93;;;8.43;;
2558;SDS011;1289;53.488;10.006;2023-08-20T04:51:02;12.10;;;8.73;;
2558;SDS011;1289;53.488;10.006;2023-08-20T04:53:31;8.70;;;7.90;;
2558;SDS011;1289;53.488;10.006;2023-08-20T04:56:00;9.03;;;8.10;;
2558;SDS011;1289;53.488;10.006;2023-08-20T04:58:26;16.53;;;7.83;;
2558;SDS011;1289;53.488;10.006;2023-08-20T05:00:53;11.20;;;8.70;;
2558;SDS011;1289;53.488;10.006;2023-08-20T05:03:20;10.13;;;8.80;;
2558;SDS011;1289;53.488;10.006;2023-08-20T05:05:48;10.03;;;9.00;;
2558;SDS011;1289;53.488;10.006;2023-08-20T05:08:15;10.17;;;9.13;;
2558;SDS011;1289;53.488;10.006;2023-08-20T05:10:42;15.43;;;9.77;;
2558;SDS011;1289;53.488;10.006;2023-08-20T05:13:10;11.03;;;9.50;;
2558;SDS011;1289;53.488;10.006;2023-08-20T05:15:36;10.63;;;9.53;;
2558;SDS011;1289;53.488;10.006;2023-08-20T05:18:03;11.20;;;9.50;;
2558;SDS011;1289;53.488;10.006;2023-08-20T05:20:30;12.47;;;8.70;;
2558;SDS011;1289;53.488;10.006;2023-08-20T05:22:56;13.53;;;9.87;;
2558;SDS011;1289;53.488;10.006;2023-08-20T05:25:24;10.87;;;9.77;;
2558;SDS011;1289;53.488;10.006;2023-08-20T05:27:51;9.40;;;8.50;;
2558;SDS011;1289;53.488;10.006;2023-08-20T05:30:19;9.90;;;9.00;;
2558;SDS011;1289;53.488;10.006;2023-08-20T05:32:45;9.43;;;7.60;;
2558;SDS011;1289;53.488;10.006;2023-08-20T05:35:12;8.13;;;7.27;;
2558;SDS011;1289;53.488;10.006;2023-08-20T05:37:40;8.67;;;7.97;;
2558;SDS011;1289;53.488;10.006;2023-08-20T05:40:07;8.03;;;7.30;;
2558;SDS011;1289;53.488;10.006;2023-08-20T05:42:35;7.30;;;6.70;;
2558;SDS011;1289;53.488;10.006;2023-08-20T05:45:05;8.20;;;7.30;;
2558;SDS011;1289;53.488;10.006;2023-08-20T05:47:34;8.23;;;7.60;;
2558;SDS011;1289;53.488;10.006;2023-08-20T05:50:02;9.10;;;8.30;;
2558;SDS011;1289;53.488;10.006;2023-08-20T05:52:29;9.10;;;8.30;;
2558;SDS011;1289;53.488;10.006;2023-08-20T05:54:56;8.70;;;7.90;;
2558;SDS011;1289;53.488;10.006;2023-08-20T05:57:22;8.33;;;7.63;;
2558;SDS011;1289;53.488;10.006;2023-08-20T05:59:49;15.90;;;9.57;;
2558;SDS011;1289;53.488;10.006;2023-08-20T06:02:16;13.83;;;9.60;;
2558;SDS011;1289;53.488;10.006;2023-08-20T06:04:45;12.43;;;10.60;;
2558;SDS011;1289;53.488;10.006;2023-08-20T06:07:11;14.03;;;10.63;;
2558;SDS011;1289;53.488;10.006;2023-08-20T06:09:38;13.33;;;9.77;;
2558;SDS011;1289;53.488;10.006;2023-08-20T06:12:04;12.10;;;9.73;;
2558;SDS011;1289;53.488;10.006;2023-08-20T06:14:31;17.37;;;9.97;;
2558;SDS011;1289;53.488;10.006;2023-08-20T06:16:58;16.27;;;11.80;;
2558;SDS011;1289;53.488;10.006;2023-08-20T06:19:25;12.47;;;11.17;;
2558;SDS011;1289;53.488;10.006;2023-08-20T06:21:53;19.80;;;12.80;;
2558;SDS011;1289;53.488;10.006;2023-08-20T06:24:20;15.10;;;11.73;;
2558;SDS011;1289;53.488;10.006;2023-08-20T06:26:46;13.63;;;12.23;;
2558;SDS011;1289;53.488;10.006;2023-08-20T06:29:13;21.83;;;13.87;;
2558;SDS011;1289;53.488;10.006;2023-08-20T06:31:39;17.40;;;12.50;;
2558;SDS011;1289;53.488;10.006;2023-08-20T06:34:06;18.40;;;13.57;;
2558;SDS011;1289;53.488;10.006;2023-08-20T06:36:32;17.87;;;13.90;;
2558;SDS011;1289;53.488;10.006;2023-08-20T06:39:00;16.43;;;14.20;;
2558;SDS011;1289;53.488;10.006;2023-08-20T06:41:27;19.83;;;13.67;;
2558;SDS011;1289;53.488;10.006;2023-08-20T06:43:54;16.90;;;13.60;;
2558;SDS011;1289;53.488;10.006;2023-08-20T06:46:20;16.93;;;14.33;;
2558;SDS011;1289;53.488;10.006;2023-08-20T06:48:47;17.63;;;15.20;;
2558;SDS011;1289;53.488;10.006;2023-08-20T06:51:13;17.97;;;15.40;;
2558;SDS011;1289;53.488;10.006;2023-08-20T06:53:41;17.27;;;15.37;;
2558;SDS011;1289;53.488;10.006;2023-08-20T06:56:09;21.47;;;15.83;;
2558;SDS011;1289;53.488;10.006;2023-08-20T06:58:36;19.17;;;15.63;;
2558;SDS011;1289;53.488;10.006;2023-08-20T07:01:03;16.53;;;14.27;;
2558;SDS011;1289;53.488;10.006;2023-08-20T07:03:33;17.97;;;14.97;;
2558;SDS011;1289;53.488;10.006;2023-08-20T07:06:01;18.40;;;15.80;;
2558;SDS011;1289;53.488;10.006;2023-08-20T07:08:27;16.63;;;14.80;;
2558;SDS011;1289;53.488;10.006;2023-08-20T07:10:54;15.40;;;13.57;;
2558;SDS011;1289;53.488;10.006;2023-08-20T07:13:22;20.07;;;14.90;;
2558;SDS011;1289;53.488;10.006;2023-08-20T07:15:49;13.93;;;12.20;;
2558;SDS011;1289;53.488;10.006;2023-08-20T07:18:15;16.83;;;13.70;;
2558;SDS011;1289;53.488;10.006;2023-08-20T07:20:42;15.43;;;11.67;;
2558;SDS011;1289;53.488;10.006;2023-08-20T07:23:11;12.60;;;10.70;;
2558;SDS011;1289;53.488;10.006;2023-08-20T07:25:38;9.33;;;8.43;;
2558;SDS011;1289;53.488;10.006;2023-08-20T07:28:05;9.87;;;8.97;;
2558;SDS011;1289;53.488;10.006;2023-08-20T07:30:34;10.93;;;9.10;;
2558;SDS011;1289;53.488;10.006;2023-08-20T07:33:01;9.10;;;8.30;;
2558;SDS011;1289;53.488;10.006;2023-08-20T07:35:28;9.37;;;8.37;;
2558;SDS011;1289;53.488;10.006;2023-08-20T07:37:55;9.17;;;8.13;;
2558;SDS011;1289;53.488;10.006;2023-08-20T07:40:22;10.50;;;7.80;;
2558;SDS011;1289;53.488;10.006;2023-08-20T07:42:48;8.73;;;7.93;;
2558;SDS011;1289;53.488;10.006;2023-08-20T07:45:15;8.87;;;8.17;;
2558;SDS011;1289;53.488;10.006;2023-08-20T07:47:43;9.03;;;7.87;;
2558;SDS011;1289;53.488;10.006;2023-08-20T07:50:10;13.10;;;7.03;;
2558;SDS011;1289;53.488;10.006;2023-08-20T07:52:36;9.10;;;8.20;;
2558;SDS011;1289;53.488;10.006;2023-08-20T07:55:03;8.47;;;7.77;;
2558;SDS011;1289;53.488;10.006;2023-08-20T07:57:30;7.83;;;6.93;;
2558;SDS011;1289;53.488;10.006;2023-08-20T07:59:57;10.27;;;8.47;;
2558;SDS011;1289;53.488;10.006;2023-08-20T08:02:23;7.90;;;7.07;;
2558;SDS011;1289;53.488;10.006;2023-08-20T08:04:51;7.83;;;7.07;;
2558;SDS011;1289;53.488;10.006;2023-08-20T08:07:18;8.10;;;7.50;;
2558;SDS011;1289;53.488;10.006;2023-08-20T08:09:44;7.60;;;6.87;;
2558;SDS011;1289;53.488;10.006;2023-08-20T08:12:11;7.40;;;6.57;;
2558;SDS011;1289;53.488;10.006;2023-08-20T08:14:38;7.33;;;6.63;;
2558;SDS011;1289;53.488;10.006;2023-08-20T08:17:04;8.10;;;6.23;;
2558;SDS011;1289;53.488;10.006;2023-08-20T08:19:33;6.53;;;5.93;;
2558;SDS011;1289;53.488;10.006;2023-08-20T08:22:01;6.97;;;6.27;;
2558;SDS011;1289;53.488;10.006;2023-08-20T08:24:28;6.90;;;6.40;;
2558;SDS011;1289;53.488;10.006;2023-08-20T08:26:55;6.43;;;5.70;;
2558;SDS011;1289;53.488;10.006;2023-08-20T08:29:21;6.73;;;6.03;;
2558;SDS011;1289;53.488;10.006;2023-08-20T08:31:48;5.90;;;5.40;;
2558;SDS011;1289;53.488;10.006;2023-08-20T08:34:15;8.27;;;5.10;;
2558;SDS011;1289;53.488;10.006;2023-08-20T08:36:42;5.30;;;4.60;;
2558;SDS011;1289;53.488;10.006;2023-08-20T08:39:11;6.20;;;4.30;;
2558;SDS011;1289;53.488;10.006;2023-08-20T08:41:38;4.40;;;4.10;;
2558;SDS011;1289;53.488;10.006;2023-08-20T08:44:06;5.10;;;4.40;;
2558;SDS011;1289;53.488;10.006;2023-08-20T08:46:35;4.03;;;3.50;;
2558;SDS011;1289;53.488;10.006;2023-08-20T08:49:01;5.77;;;3.97;;
2558;SDS011;1289;53.488;10.006;2023-08-20T08:51:29;4.30;;;3.90;;
2558;SDS011;1289;53.488;10.006;2023-08-20T08:53:56;4.77;;;4.03;;
2558;SDS011;1289;53.488;10.006;2023-08-20T08:56:24;6.03;;;3.37;;
2558;SDS011;1289;53.488;10.006;2023-08-20T08:58:51;5.03;;;3.73;;
2558;SDS011;1289;53.488;10.006;2023-08-20T09:01:17;4.40;;;3.77;;
2558;SDS011;1289;53.488;10.006;2023-08-20T09:03:44;4.70;;;3.40;;
2558;SDS011;1289;53.488;10.006;2023-08-20T09:06:11;6.30;;;3.47;;
2558;SDS011;1289;53.488;10.006;2023-08-20T09:08:38;4.50;;;3.60;;
2558;SDS011;1289;53.488;10.006;2023-08-20T09:11:04;3.97;;;3.47;;
2558;SDS011;1289;53.488;10.006;2023-08-20T09:13:36;4.80;;;3.50;;
2558;SDS011;1289;53.488;10.006;2023-08-20T09:16:04;4.03;;;3.30;;
2558;SDS011;1289;53.488;10.006;2023-08-20T09:18:31;3.90;;;3.60;;
2558;SDS011;1289;53.488;10.006;2023-08-20T09:20:58;3.83;;;3.40;;
2558;SDS011;1289;53.488;10.006;2023-08-20T09:23:28;4.97;;;3.40;;
2558;SDS011;1289;53.488;10.006;2023-08-20T09:25:55;5.20;;;3.60;;
2558;SDS011;1289;53.488;10.006;2023-08-20T09:28:22;11.70;;;4.17;;
2558;SDS011;1289;53.488;10.006;2023-08-20T09:30:56;5.13;;;3.60;;
2558;SDS011;1289;53.488;10.006;2023-08-20T09:33:26;5.53;;;3.70;;
2558;SDS011;1289;53.488;10.006;2023-08-20T09:35:53;5.80;;;3.40;;
2558;SDS011;1289;53.488;10.006;2023-08-20T09:38:20;4.97;;;4.00;;
2558;SDS011;1289;53.488;10.006;2023-08-20T09:40:47;4.13;;;3.70;;
2558;SDS011;1289;53.488;10.006;2023-08-20T09:43:18;4.70;;;4.00;;
2558;SDS011;1289;53.488;10.006;2023-08-20T09:45:46;6.40;;;3.97;;
2558;SDS011;1289;53.488;10.006;2023-08-20T09:48:16;6.20;;;4.97;;
2558;SDS011;1289;53.488;10.006;2023-08-20T09:50:44;3.80;;;3.50;;
2558;SDS011;1289;53.488;10.006;2023-08-20T09:53:15;4.93;;;4.33;;
2558;SDS011;1289;53.488;10.006;2023-08-20T09:55:43;4.60;;;3.80;;
2558;SDS011;1289;53.488;10.006;2023-08-20T09:58:11;4.43;;;4.03;;
2558;SDS011;1289;53.488;10.006;2023-08-20T10:00:38;4.70;;;4.30;;
2558;SDS011;1289;53.488;10.006;2023-08-20T10:03:04;4.57;;;3.80;;
2558;SDS011;1289;53.488;10.006;2023-08-20T10:05:33;6.63;;;4.20;;
2558;SDS011;1289;53.488;10.006;2023-08-20T10:07:59;4.63;;;3.70;;
2558;SDS011;1289;53.488;10.006;2023-08-20T10:10:27;4.57;;;4.07;;
2558;SDS011;1289;53.488;10.006;2023-08-20T10:12:54;5.80;;;4.40;;
2558;SDS011;1289;53.488;10.006;2023-08-20T10:15:21;6.23;;;4.53;;
2558;SDS011;1289;53.488;10.006;2023-08-20T10:17:49;7.57;;;4.57;;
2558;SDS011;1289;53.488;10.006;2023-08-20T10:20:17;7.60;;;4.30;;
2558;SDS011;1289;53.488;10.006;2023-08-20T10:22:46;6.50;;;4.40;;
2558;SDS011;1289;53.488;10.006;2023-08-20T10:25:21;4.33;;;3.93;;
2558;SDS011;1289;53.488;10.006;2023-08-20T10:27:48;7.47;;;4.37;;
2558;SDS011;1289;53.488;10.006;2023-08-20T10:30:16;5.30;;;4.33;;
2558;SDS011;1289;53.488;10.006;2023-08-20T10:32:46;4.50;;;3.97;;
2558;SDS011;1289;53.488;10.006;2023-08-20T10:35:14;5.00;;;3.57;;
2558;SDS011;1289;53.488;10.006;2023-08-20T10:40:47;7.40;;;3.83;;
2558;SDS011;1289;53.488;10.006;2023-08-20T10:43:28;5.17;;;3.83;;
2558;SDS011;1289;53.488;10.006;2023-08-20T10:46:04;4.20;;;3.60;;
2558;SDS011;1289;53.488;10.006;2023-08-20T10:48:32;6.13;;;4.13;;
2558;SDS011;1289;53.488;10.006;2023-08-20T10:51:05;3.60;;;3.40;;
2558;SDS011;1289;53.488;10.006;2023-08-20T10:53:34;6.53;;;4.50;;
2558;SDS011;1289;53.488;10.006;2023-08-20T10:56:08;4.70;;;3.67;;
2558;SDS011;1289;53.488;10.006;2023-08-20T10:58:35;4.73;;;3.60;;
2558;SDS011;1289;53.488;10.006;2023-08-20T11:01:12;7.20;;;3.90;;
2558;SDS011;1289;53.488;10.006;2023-08-20T11:03:39;6.30;;;3.90;;
2558;SDS011;1289;53.488;10.006;2023-08-20T11:06:05;4.30;;;3.90;;
2558;SDS011;1289;53.488;10.006;2023-08-20T11:08:32;4.80;;;3.70;;
2558;SDS011;1289;53.488;10.006;2023-08-20T11:11:00;6.00;;;3.83;;
2558;SDS011;1289;53.488;10.006;2023-08-20T11:13:28;4.10;;;3.73;;
2558;SDS011;1289;53.488;10.006;2023-08-20T11:15:54;5.67;;;4.00;;
2558;SDS011;1289;53.488;10.006;2023-08-20T11:18:21;5.27;;;3.70;;
2558;SDS011;1289;53.488;10.006;2023-08-20T11:20:48;4.67;;;3.73;;
2558;SDS011;1289;53.488;10.006;2023-08-20T11:23:15;4.43;;;3.80;;
2558;SDS011;1289;53.488;10.006;2023-08-20T11:25:42;6.30;;;4.57;;
2558;SDS011;1289;53.488;10.006;2023-08-20T11:28:10;4.20;;;3.80;;
2558;SDS011;1289;53.488;10.006;2023-08-20T11:30:36;5.20;;;4.23;;
2558;SDS011;1289;53.488;10.006;2023-08-20T11:33:03;5.30;;;4.60;;
2558;SDS011;1289;53.488;10.006;2023-08-20T11:35:31;5.60;;;4.43;;
2558;SDS011;1289;53.488;10.006;2023-08-20T11:37:58;4.93;;;4.03;;
2558;SDS011;1289;53.488;10.006;2023-08-20T11:40:25;5.23;;;3.67;;
2558;SDS011;1289;53.488;10.006;2023-08-20T11:42:51;4.23;;;3.80;;
2558;SDS011;1289;53.488;10.006;2023-08-20T11:45:20;4.83;;;3.87;;
2558;SDS011;1289;53.488;10.006;2023-08-20T11:47:46;4.60;;;4.17;;
2558;SDS011;1289;53.488;10.006;2023-08-20T11:50:13;5.63;;;4.20;;
2558;SDS011;1289;53.488;10.006;2023-08-20T11:52:39;4.73;;;4.00;;
2558;SDS011;1289;53.488;10.006;2023-08-20T11:55:06;6.43;;;3.80;;
2558;SDS011;1289;53.488;10.006;2023-08-20T11:57:34;4.20;;;3.80;;
2558;SDS011;1289;53.488;10.006;2023-08-20T12:00:01;4.90;;;4.00;;
2558;SDS011;1289;53.488;10.006;2023-08-20T12:02:41;5.83;;;4.80;;
2558;SDS011;1289;53.488;10.006;2023-08-20T12:05:08;6.53;;;4.60;;
2558;SDS011;1289;53.488;10.006;2023-08-20T12:07:34;7.43;;;4.13;;
2558;SDS011;1289;53.488;10.006;2023-08-20T12:12:46;6.50;;;4.43;;
2558;SDS011;1289;53.488;10.006;2023-08-20T12:15:12;6.13;;;4.13;;
2558;SDS011;1289;53.488;10.006;2023-08-20T12:17:41;5.30;;;4.87;;
2558;SDS011;1289;53.488;10.006;2023-08-20T12:20:07;5.20;;;3.80;;
2558;SDS011;1289;53.488;10.006;2023-08-20T12:22:37;4.10;;;3.57;;
2558;SDS011;1289;53.488;10.006;2023-08-20T12:25:04;8.70;;;4.20;;
2558;SDS011;1289;53.488;10.006;2023-08-20T12:27:33;4.80;;;3.73;;
2558;SDS011;1289;53.488;10.006;2023-08-20T12:30:00;4.97;;;4.40;;
2558;SDS011;1289;53.488;10.006;2023-08-20T12:32:28;4.63;;;4.20;;
2558;SDS011;1289;53.488;10.006;2023-08-20T12:34:56;5.47;;;4.07;;
2558;SDS011;1289;53.488;10.006;2023-08-20T12:37:22;7.03;;;4.40;;
2558;SDS011;1289;53.488;10.006;2023-08-20T12:39:49;6.37;;;4.67;;
2558;SDS011;1289;53.488;10.006;2023-08-20T12:42:15;4.60;;;4.17;;
2558;SDS011;1289;53.488;10.006;2023-08-20T12:44:42;4.70;;;3.67;;
2558;SDS011;1289;53.488;10.006;2023-08-20T12:47:09;5.43;;;3.80;;
2558;SDS011;1289;53.488;10.006;2023-08-20T12:49:35;5.47;;;4.20;;
2558;SDS011;1289;53.488;10.006;2023-08-20T12:52:03;4.97;;;3.97;;
2558;SDS011;1289;53.488;10.006;2023-08-20T12:54:30;5.80;;;5.00;;
2558;SDS011;1289;53.488;10.006;2023-08-20T12:56:56;4.47;;;4.07;;
2558;SDS011;1289;53.488;10.006;2023-08-20T12:59:23;5.10;;;4.43;;
2558;SDS011;1289;53.488;10.006;2023-08-20T13:01:49;5.13;;;4.20;;
2558;SDS011;1289;53.488;10.006;2023-08-20T13:04:16;4.67;;;4.27;;
2558;SDS011;1289;53.488;10.006;2023-08-20T13:06:43;4.90;;;4.50;;
2558;SDS011;1289;53.488;10.006;2023-08-20T13:09:13;6.33;;;4.57;;
2558;SDS011;1289;53.488;10.006;2023-08-20T13:11:40;5.20;;;4.70;;
2558;SDS011;1289;53.488;10.006;2023-08-20T13:14:09;4.40;;;4.00;;
2558;SDS011;1289;53.488;10.006;2023-08-20T13:16:37;5.07;;;4.67;;
2558;SDS011;1289;53.488;10.006;2023-08-20T13:19:04;5.27;;;4.63;;
2558;SDS011;1289;53.488;10.006;2023-08-20T13:21:31;4.70;;;4.27;;
2558;SDS011;1289;53.488;10.006;2023-08-20T13:23:58;5.70;;;4.57;;
2558;SDS011;1289;53.488;10.006;2023-08-20T13:26:26;4.83;;;4.33;;
2558;SDS011;1289;53.488;10.006;2023-08-20T13:28:52;4.87;;;4.37;;
2558;SDS011;1289;53.488;10.006;2023-08-20T13:31:19;4.83;;;4.33;;
2558;SDS011;1289;53.488;10.006;2023-08-20T13:33:46;5.33;;;4.53;;
2558;SDS011;1289;53.488;10.006;2023-08-20T13:36:14;7.63;;;5.07;;
2558;SDS011;1289;53.488;10.006;2023-08-20T13:38:41;5.90;;;4.77;;
2558;SDS011;1289;53.488;10.006;2023-08-20T13:41:07;6.17;;;4.67;;
2558;SDS011;1289;53.488;10.006;2023-08-20T13:43:36;6.47;;;5.07;;
2558;SDS011;1289;53.488;10.006;2023-08-20T13:46:03;11.00;;;4.67;;
2558;SDS011;1289;53.488;10.006;2023-08-20T13:48:29;6.77;;;4.27;;
2558;SDS011;1289;53.488;10.006;2023-08-20T13:50:56;5.03;;;4.40;;
2558;SDS011;1289;53.488;10.006;2023-08-20T13:53:23;4.77;;;4.20;;
2558;SDS011;1289;53.488;10.006;2023-08-20T13:55:49;5.03;;;4.53;;
2558;SDS011;1289;53.488;10.006;2023-08-20T13:58:17;5.63;;;4.53;;
2558;SDS011;1289;53.488;10.006;2023-08-20T14:00:45;6.67;;;4.43;;
2558;SDS011;1289;53.488;10.006;2023-08-20T14:03:11;8.07;;;4.80;;
2558;SDS011;1289;53.488;10.006;2023-08-20T14:05:38;4.50;;;4.10;;
2558;SDS011;1289;53.488;10.006;2023-08-20T14:08:05;5.60;;;4.40;;
2558;SDS011;1289;53.488;10.006;2023-08-20T14:10:32;5.80;;;5.20;;
2558;SDS011;1289;53.488;10.006;2023-08-20T14:12:58;7.30;;;4.57;;
2558;SDS011;1289;53.488;10.006;2023-08-20T14:15:25;6.50;;;4.20;;
2558;SDS011;1289;53.488;10.006;2023-08-20T14:17:53;8.17;;;5.67;;
2558;SDS011;1289;53.488;10.006;2023-08-20T14:20:19;4.80;;;4.43;;
2558;SDS011;1289;53.488;10.006;2023-08-20T14:22:46;5.53;;;4.20;;
2558;SDS011;1289;53.488;10.006;2023-08-20T14:25:12;4.70;;;4.10;;
2558;SDS011;1289;53.488;10.006;2023-08-20T14:27:39;8.10;;;4.87;;
2558;SDS011;1289;53.488;10.006;2023-08-20T14:30:06;4.87;;;4.17;;
2558;SDS011;1289;53.488;10.006;2023-08-20T14:32:35;6.37;;;4.30;;
2558;SDS011;1289;53.488;10.006;2023-08-20T14:35:04;5.10;;;4.60;;
2558;SDS011;1289;53.488;10.006;2023-08-20T14:37:31;9.70;;;4.17;;
2558;SDS011;1289;53.488;10.006;2023-08-20T14:39:57;4.77;;;4.37;;
2558;SDS011;1289;53.488;10.006;2023-08-20T14:42:24;5.83;;;4.43;;
2558;SDS011;1289;53.488;10.006;2023-08-20T14:44:50;5.90;;;4.27;;
2558;SDS011;1289;53.488;10.006;2023-08-20T14:47:18;5.30;;;4.17;;
2558;SDS011;1289;53.488;10.006;2023-08-20T14:49:45;4.90;;;4.00;;
2558;SDS011;1289;53.488;10.006;2023-08-20T14:52:13;6.70;;;4.20;;
2558;SDS011;1289;53.488;10.006;2023-08-20T14:54:39;4.43;;;4.10;;
2558;SDS011;1289;53.488;10.006;2023-08-20T14:57:07;5.53;;;4.03;;
2558;SDS011;1289;53.488;10.006;2023-08-20T14:59:34;4.73;;;4.10;;
2558;SDS011;1289;53.488;10.006;2023-08-20T15:02:00;6.17;;;5.03;;
2558;SDS011;1289;53.488;10.006;2023-08-20T15:04:27;5.67;;;3.60;;